Time;durP1;ratioP1;P1;durP2;ratioP2;P2;SDS_P1;SDS_P2;PMS_P1;PMS_P2;Temp;Humidity;BMP_temperature;BMP_pressure;BME280_temperature;BME280_humidity;BME280_pressure;Samples;Min_cycle;Max_cycle;Signal;HPM_P1;HPM_P2
2024/01/06 00:01:20;;;;;;;37.40;26.30;;;4.00;99.90;;;;;;5111862;28;20261;-86
2024/01/06 00:03:47;;;;;;;38.72;28.48;;;4.00;99.90;;;;;;5120176;28;20214;-85
2024/01/06 00:06:16;;;;;;;40.28;27.38;;;4.00;99.90;;;;;;5123278;28;20233;-87
2024/01/06 00:08:43;;;;;;;41.05;28.20;;;3.90;99.90;;;;;;5121476;28;20226;-87
2024/01/06 00:11:10;;;;;;;41.00;27.10;;;3.90;99.90;;;;;;5118156;28;20223;-81
2024/01/06 00:13:38;;;;;;;36.67;26.60;;;4.00;99.90;;;;;;5115594;28;20234;-87
2024/01/06 00:16:07;;;;;;;41.13;27.42;;;4.00;99.90;;;;;;5119812;28;20211;-89
2024/01/06 00:18:34;;;;;;;42.35;29.85;;;4.00;99.90;;;;;;5120774;28;20249;-89
2024/01/06 00:21:01;;;;;;;38.95;27.38;;;4.00;99.90;;;;;;5119248;28;20229;-85
2024/01/06 00:23:28;;;;;;;37.60;27.20;;;4.00;99.90;;;;;;5121186;28;20234;-81
2024/01/06 00:25:55;;;;;;;41.63;27.42;;;4.00;99.90;;;;;;5118183;28;20310;-87
2024/01/06 00:28:22;;;;;;;35.03;25.20;;;4.00;99.90;;;;;;5119192;28;20223;-81
2024/01/06 00:30:49;;;;;;;40.70;28.30;;;4.00;99.90;;;;;;5114620;28;20705;-88
2024/01/06 00:33:17;;;;;;;43.58;27.98;;;4.10;99.90;;;;;;5110967;28;20234;-81
2024/01/06 00:35:44;;;;;;;32.67;22.77;;;4.00;99.90;;;;;;5097878;28;20218;-82
2024/01/06 00:38:11;;;;;;;42.45;27.13;;;4.10;99.90;;;;;;5114968;28;20226;-79
2024/01/06 00:40:38;;;;;;;36.42;24.98;;;4.10;99.90;;;;;;5120317;28;20254;-87
2024/01/06 00:43:06;;;;;;;43.00;29.85;;;4.10;99.90;;;;;;5116719;28;20234;-89
2024/01/06 00:45:32;;;;;;;38.95;26.15;;;4.00;99.90;;;;;;5116625;28;20259;-92
2024/01/06 00:47:59;;;;;;;55.20;35.13;;;4.00;99.90;;;;;;5116694;28;20287;-92
2024/01/06 00:50:28;;;;;;;45.33;32.33;;;4.00;99.90;;;;;;5116910;28;20309;-92
2024/01/06 00:52:57;;;;;;;50.05;31.80;;;4.10;99.90;;;;;;5114947;27;20226;-81
2024/01/06 00:55:27;;;;;;;58.75;36.42;;;4.00;99.90;;;;;;5113845;27;20358;-87
2024/01/06 00:57:54;;;;;;;76.47;45.40;;;4.00;99.90;;;;;;5112420;27;20636;-82
2024/01/06 01:00:22;;;;;;;65.93;41.88;;;4.00;99.90;;;;;;5100085;27;20227;-81
2024/01/06 01:02:51;;;;;;;90.60;50.88;;;3.90;99.90;;;;;;5103323;27;20219;-81
2024/01/06 01:05:18;;;;;;;68.28;37.40;;;4.00;99.90;;;;;;5115404;27;20257;-90
2024/01/06 01:07:46;;;;;;;70.78;41.88;;;4.00;99.90;;;;;;5116313;27;20253;-92
2024/01/06 01:10:13;;;;;;;82.93;50.47;;;4.10;99.90;;;;;;5114893;27;20656;-81
2024/01/06 01:12:40;;;;;;;63.38;40.05;;;4.10;99.90;;;;;;5107893;27;20221;-81
2024/01/06 01:15:08;;;;;;;68.28;43.13;;;4.20;99.90;;;;;;5113733;27;20610;-80
2024/01/06 01:17:36;;;;;;;53.00;32.60;;;4.20;99.90;;;;;;5096467;28;20712;-81
2024/01/06 01:20:04;;;;;;;104.55;59.40;;;4.10;99.90;;;;;;5099445;28;20222;-92
2024/01/06 01:22:31;;;;;;;75.03;43.40;;;4.00;99.90;;;;;;5115885;27;20680;-91
2024/01/06 01:25:05;;;;;;;172.73;91.47;;;4.00;99.90;;;;;;5106605;27;20223;-81
2024/01/06 01:27:32;;;;;;;199.90;101.88;;;4.00;99.90;;;;;;5112462;27;20286;-92
2024/01/06 01:29:59;;;;;;;86.82;48.53;;;4.00;99.90;;;;;;5116059;27;20226;-92
2024/01/06 01:32:29;;;;;;;71.47;40.22;;;4.00;99.90;;;;;;5115614;27;20614;-81
2024/01/06 01:34:57;;;;;;;81.95;50.40;;;4.10;99.90;;;;;;5113695;27;21385;-91
2024/01/06 01:37:24;;;;;;;70.22;43.17;;;4.10;99.90;;;;;;5115174;28;20310;-81
2024/01/06 01:39:51;;;;;;;138.15;74.10;;;4.10;99.90;;;;;;5113047;28;20227;-81
2024/01/06 01:42:20;;;;;;;73.53;40.22;;;4.00;99.90;;;;;;5113712;28;20288;-80
2024/01/06 01:44:47;;;;;;;86.25;49.92;;;4.10;99.90;;;;;;5100934;28;20223;-81
2024/01/06 01:47:18;;;;;;;116.85;63.20;;;4.10;99.90;;;;;;5094206;28;20219;-81
2024/01/06 01:49:46;;;;;;;58.88;38.22;;;4.10;99.90;;;;;;5112965;28;20229;-81
2024/01/06 01:52:14;;;;;;;57.83;37.03;;;4.10;99.90;;;;;;5112761;28;20615;-81
2024/01/06 01:54:42;;;;;;;47.17;33.10;;;4.10;99.90;;;;;;5113110;28;20223;-82
2024/01/06 01:57:09;;;;;;;45.40;29.45;;;4.10;99.90;;;;;;5093768;28;20235;-81
2024/01/06 01:59:38;;;;;;;40.55;26.20;;;4.00;99.90;;;;;;5093341;28;20219;-81
2024/01/06 02:02:05;;;;;;;35.90;23.58;;;4.00;99.90;;;;;;5094836;28;20223;-82
2024/01/06 02:04:36;;;;;;;29.33;22.60;;;4.00;99.90;;;;;;5092181;28;20223;-91
2024/01/06 02:07:05;;;;;;;38.13;24.33;;;4.00;99.90;;;;;;5092787;28;20537;-81
2024/01/06 02:09:32;;;;;;;32.85;22.83;;;4.10;99.90;;;;;;5093833;28;20219;-91
2024/01/06 02:12:00;;;;;;;29.52;20.75;;;4.10;99.90;;;;;;5094638;28;20335;-91
2024/01/06 02:14:27;;;;;;;32.80;24.63;;;4.10;99.90;;;;;;5094203;28;20231;-81
2024/01/06 02:16:58;;;;;;;30.63;22.52;;;4.00;99.90;;;;;;5099419;28;20249;-90
2024/01/06 02:19:28;;;;;;;31.73;23.42;;;4.00;99.90;;;;;;5101081;28;20227;-89
2024/01/06 02:21:56;;;;;;;33.30;23.23;;;4.00;99.90;;;;;;5093598;28;20308;-91
2024/01/06 02:24:23;;;;;;;33.25;22.23;;;4.00;99.90;;;;;;5094175;28;20230;-81
2024/01/06 02:26:50;;;;;;;35.13;25.02;;;4.00;99.90;;;;;;5092425;28;20680;-81
2024/01/06 02:29:17;;;;;;;31.63;22.25;;;4.00;99.90;;;;;;5093467;28;20223;-90
2024/01/06 02:31:45;;;;;;;37.65;23.02;;;4.00;99.90;;;;;;5092564;28;20619;-81
2024/01/06 02:34:11;;;;;;;36.85;25.35;;;3.90;99.90;;;;;;5093525;28;20284;-91
2024/01/06 02:36:38;;;;;;;37.17;24.58;;;3.90;99.90;;;;;;5093245;28;20227;-81
2024/01/06 02:39:07;;;;;;;35.95;25.40;;;3.90;99.90;;;;;;5092104;28;20227;-81
2024/01/06 02:41:34;;;;;;;35.25;21.77;;;3.90;99.90;;;;;;5093292;28;20227;-90
2024/01/06 02:44:02;;;;;;;32.42;20.95;;;3.90;99.90;;;;;;5092556;28;20239;-81
2024/01/06 02:46:29;;;;;;;35.30;22.05;;;3.90;99.90;;;;;;5092878;28;20231;-90
2024/01/06 02:48:56;;;;;;;37.97;22.70;;;3.90;99.90;;;;;;5107867;28;20226;-92
2024/01/06 02:51:23;;;;;;;32.60;23.95;;;3.90;99.90;;;;;;5113943;28;20674;-90
2024/01/06 02:53:50;;;;;;;31.23;23.17;;;3.90;99.90;;;;;;5112586;28;20234;-82
2024/01/06 02:56:18;;;;;;;33.80;22.88;;;3.80;99.90;;;;;;5113056;28;20218;-81
2024/01/06 02:58:45;;;;;;;30.75;23.08;;;3.80;99.90;;;;;;5099381;28;20231;-88
2024/01/06 03:01:13;;;;;;;36.47;24.27;;;3.80;99.90;;;;;;5092522;28;20231;-81
2024/01/06 03:03:40;;;;;;;35.17;23.60;;;3.80;99.90;;;;;;5092726;28;20285;-81
2024/01/06 03:06:07;;;;;;;37.88;21.95;;;3.80;99.90;;;;;;5092755;28;20219;-92
2024/01/06 03:08:35;;;;;;;32.33;22.90;;;3.80;99.90;;;;;;5093135;28;20696;-91
2024/01/06 03:11:05;;;;;;;29.73;20.52;;;3.80;99.90;;;;;;5091972;28;20234;-81
2024/01/06 03:13:33;;;;;;;33.08;22.42;;;3.80;99.90;;;;;;5092592;28;20227;-91
2024/01/06 03:16:04;;;;;;;33.78;24.45;;;3.70;99.90;;;;;;5098317;28;20220;-82
2024/01/06 03:18:33;;;;;;;34.78;22.35;;;3.70;99.90;;;;;;5116974;28;20538;-80
2024/01/06 03:21:00;;;;;;;42.22;26.23;;;3.70;99.90;;;;;;5116764;27;20305;-82
2024/01/06 03:23:27;;;;;;;31.67;22.48;;;3.70;99.90;;;;;;5105248;28;20243;-81
2024/01/06 03:25:54;;;;;;;36.08;23.05;;;3.70;99.90;;;;;;5115360;27;20222;-81
2024/01/06 03:28:21;;;;;;;37.75;23.73;;;3.70;99.90;;;;;;5117312;28;20539;-91
2024/01/06 03:30:50;;;;;;;39.80;26.05;;;3.70;99.90;;;;;;5116714;28;20275;-90
2024/01/06 03:33:17;;;;;;;35.95;23.40;;;3.80;99.90;;;;;;5116235;28;20233;-91
2024/01/06 03:35:44;;;;;;;31.65;21.92;;;3.80;99.90;;;;;;5117146;27;20636;-80
2024/01/06 03:38:11;;;;;;;46.08;26.08;;;3.80;99.90;;;;;;5116015;28;20544;-91
2024/01/06 03:40:39;;;;;;;37.83;24.98;;;3.80;99.90;;;;;;5118060;28;20222;-92
2024/01/06 03:43:06;;;;;;;37.97;23.17;;;3.80;99.90;;;;;;5116196;28;20283;-92
2024/01/06 03:45:34;;;;;;;33.65;23.08;;;3.80;99.90;;;;;;5111221;27;20242;-91
2024/01/06 03:48:02;;;;;;;40.03;25.88;;;3.70;99.90;;;;;;5126897;27;20253;-82
2024/01/06 03:50:29;;;;;;;37.78;23.98;;;3.70;99.90;;;;;;5102353;28;20664;-81
2024/01/06 03:52:56;;;;;;;34.60;24.38;;;3.70;99.90;;;;;;5115203;27;20222;-81
2024/01/06 03:55:23;;;;;;;32.10;22.45;;;3.70;99.90;;;;;;5116013;27;20227;-81
2024/01/06 03:57:50;;;;;;;34.05;24.25;;;3.60;99.90;;;;;;5116465;27;20219;-81
2024/01/06 04:00:18;;;;;;;40.25;25.92;;;3.70;99.90;;;;;;5116260;28;20231;-92
2024/01/06 04:02:45;;;;;;;38.05;24.13;;;3.70;99.90;;;;;;5116327;27;20227;-81
2024/01/06 04:05:14;;;;;;;34.75;23.42;;;3.70;99.90;;;;;;5115244;28;20226;-82
2024/01/06 04:07:41;;;;;;;36.10;25.17;;;3.60;99.90;;;;;;5116538;28;20222;-91
2024/01/06 04:10:09;;;;;;;41.05;23.73;;;3.60;99.90;;;;;;5117119;27;20227;-92
2024/01/06 04:12:36;;;;;;;38.67;25.55;;;3.60;99.90;;;;;;5115518;28;20215;-82
2024/01/06 04:15:03;;;;;;;37.67;24.67;;;3.70;99.90;;;;;;5115518;28;20725;-82
2024/01/06 04:17:30;;;;;;;39.63;23.70;;;3.70;99.90;;;;;;5103703;28;20243;-82
2024/01/06 04:19:57;;;;;;;39.80;24.67;;;3.70;99.90;;;;;;5099246;28;20607;-81
2024/01/06 04:22:25;;;;;;;40.17;25.10;;;3.80;99.90;;;;;;5114893;28;20287;-80
2024/01/06 04:24:52;;;;;;;44.83;24.95;;;3.80;99.90;;;;;;5115880;28;20672;-81
2024/01/06 04:27:19;;;;;;;43.10;24.63;;;3.90;99.90;;;;;;5114293;28;20222;-82
2024/01/06 04:29:46;;;;;;;34.83;22.15;;;3.90;99.90;;;;;;5115581;28;20218;-81
2024/01/06 04:32:13;;;;;;;43.42;26.17;;;3.90;99.90;;;;;;5118878;28;20292;-89
2024/01/06 04:34:41;;;;;;;36.50;25.40;;;3.80;99.90;;;;;;5118846;28;20222;-91
2024/01/06 04:37:11;;;;;;;37.72;23.95;;;3.90;99.90;;;;;;5114755;28;20254;-81
2024/01/06 04:39:42;;;;;;;36.92;23.77;;;3.90;99.90;;;;;;5098160;28;20223;-90
2024/01/06 04:42:09;;;;;;;37.58;24.60;;;3.90;99.90;;;;;;5102759;28;20231;-91
2024/01/06 04:44:36;;;;;;;35.72;24.35;;;3.80;99.90;;;;;;5098262;28;20231;-91
2024/01/06 04:47:03;;;;;;;38.83;24.77;;;3.80;99.90;;;;;;5096831;28;20276;-91
2024/01/06 04:49:33;;;;;;;47.70;25.98;;;3.90;99.90;;;;;;5099499;27;20230;-81
2024/01/06 04:52:00;;;;;;;37.13;25.63;;;3.90;99.90;;;;;;5115270;27;20257;-90
2024/01/06 04:54:27;;;;;;;36.67;24.58;;;3.80;99.90;;;;;;5116555;27;20230;-93
2024/01/06 04:56:56;;;;;;;39.25;27.50;;;3.80;99.90;;;;;;5115455;27;20587;-82
2024/01/06 04:59:22;;;;;;;41.70;26.83;;;3.90;99.90;;;;;;5114283;28;20310;-93
2024/01/06 05:01:51;;;;;;;41.03;25.95;;;3.90;99.90;;;;;;5115237;28;20683;-82
2024/01/06 05:04:18;;;;;;;37.67;25.83;;;3.80;99.90;;;;;;5098396;28;20235;-82
2024/01/06 05:06:45;;;;;;;38.83;24.92;;;3.90;99.90;;;;;;5095263;28;20607;-93
2024/01/06 05:09:12;;;;;;;43.38;26.15;;;3.80;99.90;;;;;;5094143;28;20249;-92
2024/01/06 05:11:39;;;;;;;38.35;26.38;;;3.70;99.90;;;;;;5095255;28;20234;-93
2024/01/06 05:14:07;;;;;;;46.03;26.08;;;3.70;99.90;;;;;;5094425;28;20573;-93
2024/01/06 05:16:34;;;;;;;46.08;27.40;;;3.70;99.90;;;;;;5094714;28;20215;-93
2024/01/06 05:19:07;;;;;;;40.42;25.52;;;3.80;99.90;;;;;;5094891;28;20223;-82
2024/01/06 05:21:35;;;;;;;36.40;23.67;;;3.70;99.90;;;;;;5093148;28;20226;-82
2024/01/06 05:24:03;;;;;;;46.92;26.92;;;3.80;99.90;;;;;;5095817;28;20296;-92
2024/01/06 05:26:30;;;;;;;46.70;26.48;;;3.70;99.90;;;;;;5094306;28;20219;-92
2024/01/06 05:29:25;;;;;;;44.88;28.13;;;3.70;99.90;;;;;;5094899;28;20223;-82
2024/01/06 05:31:52;;;;;;;43.28;26.77;;;3.70;99.90;;;;;;5067956;28;20216;-82
2024/01/06 05:34:19;;;;;;;47.38;27.77;;;3.70;99.90;;;;;;5094583;28;20243;-93
2024/01/06 05:36:46;;;;;;;43.60;26.58;;;3.70;99.90;;;;;;5094425;28;20211;-93
2024/01/06 05:39:13;;;;;;;36.30;26.40;;;3.70;99.90;;;;;;5094321;28;20227;-93
2024/01/06 05:41:41;;;;;;;42.67;27.83;;;3.70;99.90;;;;;;5095600;28;20259;-93
2024/01/06 05:44:08;;;;;;;38.67;25.30;;;3.70;99.90;;;;;;5098493;28;20231;-82
2024/01/06 05:46:36;;;;;;;43.97;27.33;;;3.60;99.90;;;;;;5092929;28;20245;-82
2024/01/06 05:49:04;;;;;;;42.38;26.65;;;3.60;99.90;;;;;;5093858;28;20219;-93
2024/01/06 05:51:31;;;;;;;40.60;25.15;;;3.50;99.90;;;;;;5094345;28;20232;-93
2024/01/06 05:53:59;;;;;;;39.35;25.95;;;3.60;99.90;;;;;;5093488;28;20280;-93
2024/01/06 05:56:30;;;;;;;40.55;26.02;;;3.50;99.90;;;;;;5094416;28;20272;-94
2024/01/06 05:58:57;;;;;;;44.72;28.15;;;3.50;99.90;;;;;;5092649;28;20298;-82
2024/01/06 06:01:56;;;;;;;38.90;26.45;;;3.50;99.90;;;;;;5094079;28;20264;-83
2024/01/06 06:04:24;;;;;;;48.33;27.70;;;3.50;99.90;;;;;;5092801;28;20224;-82
2024/01/06 06:07:40;;;;;;;45.28;26.00;;;3.40;99.90;;;;;;5093444;28;20231;-82
2024/01/06 06:10:11;;;;;;;46.33;26.40;;;3.50;99.90;;;;;;5092392;28;20696;-82
2024/01/06 06:12:38;;;;;;;39.85;26.75;;;3.50;99.90;;;;;;5096476;28;20238;-93
2024/01/06 06:15:09;;;;;;;42.83;23.65;;;3.50;99.90;;;;;;5099445;28;20219;-83
2024/01/06 06:17:37;;;;;;;38.03;23.65;;;3.40;99.90;;;;;;5099166;28;20227;-82
2024/01/06 06:20:06;;;;;;;37.00;23.33;;;3.40;99.90;;;;;;5104000;28;20222;-92
2024/01/06 06:22:33;;;;;;;38.22;24.50;;;3.40;99.90;;;;;;5106539;28;20254;-81
2024/01/06 06:25:00;;;;;;;40.85;25.63;;;3.40;99.90;;;;;;5083945;28;20230;-82
2024/01/06 06:27:28;;;;;;;40.75;26.73;;;3.40;99.90;;;;;;5093596;28;20293;-82
2024/01/06 06:30:00;;;;;;;43.42;27.50;;;3.40;99.90;;;;;;5096445;28;20219;-93
2024/01/06 06:32:27;;;;;;;42.28;25.45;;;3.40;99.90;;;;;;5098996;28;20507;-93
2024/01/06 06:34:56;;;;;;;40.03;25.20;;;3.40;99.90;;;;;;5097053;28;20223;-93
2024/01/06 06:37:23;;;;;;;42.42;26.55;;;3.40;99.90;;;;;;5095046;28;20219;-82
2024/01/06 06:39:50;;;;;;;40.72;25.13;;;3.40;99.90;;;;;;5093448;28;20215;-82
2024/01/06 06:42:17;;;;;;;39.42;26.20;;;3.30;99.90;;;;;;5095254;28;20223;-82
2024/01/06 06:44:44;;;;;;;46.47;25.60;;;3.30;99.90;;;;;;5096981;28;20226;-82
2024/01/06 06:47:11;;;;;;;41.75;25.13;;;3.30;99.90;;;;;;5096423;28;20740;-93
2024/01/06 06:49:38;;;;;;;39.65;25.75;;;3.20;99.90;;;;;;5099888;28;20227;-93
2024/01/06 06:52:07;;;;;;;38.50;25.40;;;3.20;99.90;;;;;;5106875;28;20596;-91
2024/01/06 06:54:34;;;;;;;39.33;23.50;;;3.30;99.90;;;;;;5104666;28;20223;-82
2024/01/06 06:57:01;;;;;;;44.28;24.60;;;3.30;99.90;;;;;;5104204;28;20226;-92
2024/01/06 06:59:28;;;;;;;44.65;26.30;;;3.30;99.90;;;;;;5107286;28;20222;-93
2024/01/06 07:01:55;;;;;;;42.03;24.40;;;3.20;99.90;;;;;;5101508;28;20219;-82
2024/01/06 07:04:23;;;;;;;40.38;24.85;;;3.30;99.90;;;;;;5090406;28;20231;-92
2024/01/06 07:06:50;;;;;;;37.83;23.77;;;3.30;99.90;;;;;;5119070;28;20287;-92
2024/01/06 07:09:18;;;;;;;42.05;24.15;;;3.20;99.90;;;;;;5104858;28;20283;-82
2024/01/06 07:12:15;;;;;;;45.97;25.77;;;3.20;99.90;;;;;;5097358;28;20219;-86
2024/01/06 07:14:43;;;;;;;38.58;24.10;;;3.20;99.90;;;;;;5107677;28;20292;-81
2024/01/06 07:17:10;;;;;;;43.47;26.60;;;3.20;99.90;;;;;;5102849;28;20224;-81
2024/01/06 07:19:42;;;;;;;39.63;24.67;;;3.20;99.90;;;;;;5102145;28;20219;-92
2024/01/06 07:22:09;;;;;;;47.42;28.33;;;3.20;99.90;;;;;;5100022;28;20235;-92
2024/01/06 07:24:37;;;;;;;42.40;26.02;;;3.20;99.90;;;;;;5098491;28;20251;-82
2024/01/06 07:27:08;;;;;;;47.58;26.33;;;3.10;99.90;;;;;;5090740;28;20300;-92
2024/01/06 07:29:35;;;;;;;43.78;27.35;;;3.00;99.90;;;;;;5096722;28;20228;-82
2024/01/06 07:32:02;;;;;;;46.53;27.38;;;3.00;99.90;;;;;;5098787;28;20231;-82
2024/01/06 07:34:29;;;;;;;39.92;24.08;;;2.90;99.90;;;;;;5098150;28;20582;-82
2024/01/06 07:36:56;;;;;;;48.65;27.75;;;3.00;99.90;;;;;;5099357;28;20234;-92
2024/01/06 07:39:24;;;;;;;45.88;25.02;;;2.90;99.90;;;;;;5099569;28;20293;-81
2024/01/06 07:41:52;;;;;;;44.83;25.83;;;2.90;99.90;;;;;;5102063;28;20215;-93
2024/01/06 07:44:24;;;;;;;43.15;25.27;;;2.90;99.90;;;;;;5108069;28;20226;-92
2024/01/06 07:46:53;;;;;;;43.88;27.58;;;2.90;99.90;;;;;;5106064;28;20223;-92
2024/01/06 07:49:20;;;;;;;38.65;24.25;;;2.90;99.90;;;;;;5104305;28;20223;-91
2024/01/06 07:55:48;;;;;;;44.05;25.67;;;2.90;99.90;;;;;;5047433;28;20235;-93
2024/01/06 07:58:17;;;;;;;37.92;24.15;;;2.90;99.90;;;;;;5103762;28;20289;-93
2024/01/06 08:00:44;;;;;;;42.55;24.17;;;3.00;99.90;;;;;;5114749;28;20302;-93
2024/01/06 08:03:39;;;;;;;40.50;27.35;;;2.90;99.90;;;;;;5109986;28;20223;-92
2024/01/06 08:06:06;;;;;;;42.90;26.70;;;2.90;99.90;;;;;;5066113;28;20255;-94
2024/01/06 08:08:33;;;;;;;39.63;25.15;;;2.80;99.90;;;;;;5072818;28;20235;-93
2024/01/06 08:11:03;;;;;;;38.08;26.13;;;2.80;99.90;;;;;;5070844;28;20217;-92
2024/01/06 08:13:32;;;;;;;39.78;25.33;;;2.80;99.90;;;;;;5072474;28;20264;-93
2024/01/06 08:16:03;;;;;;;46.25;24.95;;;2.80;99.90;;;;;;5073010;28;20234;-93
2024/01/06 08:18:30;;;;;;;43.40;27.05;;;2.60;99.90;;;;;;5071045;28;20292;-92
2024/01/06 08:21:12;;;;;;;46.63;27.42;;;2.70;99.90;;;;;;5069923;28;20282;-83
2024/01/06 08:23:39;;;;;;;45.70;26.70;;;2.70;99.90;;;;;;5067794;28;20228;-94
2024/01/06 08:26:07;;;;;;;46.35;27.50;;;2.60;99.90;;;;;;5069810;28;20266;-83
2024/01/06 08:28:36;;;;;;;45.60;27.02;;;2.70;99.90;;;;;;5070671;28;20240;-82
2024/01/06 08:31:03;;;;;;;47.95;27.70;;;2.70;99.90;;;;;;5060060;28;20294;-83
2024/01/06 08:33:32;;;;;;;54.03;30.73;;;2.70;99.90;;;;;;5070789;28;20224;-82
2024/01/06 08:35:59;;;;;;;46.75;25.05;;;2.70;99.90;;;;;;5067650;28;20221;-83
2024/01/06 08:38:25;;;;;;;42.47;26.15;;;2.70;99.90;;;;;;5069373;28;20263;-82
2024/01/06 08:40:53;;;;;;;48.83;28.42;;;2.70;99.90;;;;;;5068832;28;20260;-83
2024/01/06 08:43:21;;;;;;;50.45;27.23;;;2.70;99.90;;;;;;5068317;28;20225;-82
2024/01/06 08:45:50;;;;;;;46.03;26.17;;;2.70;99.90;;;;;;5062524;28;20227;-94
2024/01/06 08:48:18;;;;;;;47.63;27.60;;;2.70;99.90;;;;;;5064167;28;20284;-93
2024/01/06 08:50:47;;;;;;;45.28;27.65;;;2.70;99.90;;;;;;5069567;28;20235;-82
2024/01/06 08:53:16;;;;;;;43.78;26.52;;;2.70;99.90;;;;;;5067864;28;20240;-83
2024/01/06 08:55:43;;;;;;;39.08;25.83;;;2.70;99.90;;;;;;5062367;28;20225;-88
2024/01/06 08:58:12;;;;;;;51.15;29.55;;;2.80;99.90;;;;;;5044342;28;20229;-84
2024/01/06 09:00:39;;;;;;;48.30;28.55;;;2.80;99.90;;;;;;5058676;28;20226;-93
2024/01/06 09:03:09;;;;;;;41.00;25.92;;;2.80;99.90;;;;;;5079735;28;20224;-93
2024/01/06 09:05:38;;;;;;;51.75;28.90;;;2.80;99.90;;;;;;5091257;28;20306;-93
2024/01/06 09:08:06;;;;;;;51.97;28.33;;;2.80;99.90;;;;;;5099217;28;20223;-93
2024/01/06 09:10:33;;;;;;;42.75;25.92;;;2.80;99.90;;;;;;5098179;28;20249;-93
2024/01/06 09:13:01;;;;;;;40.17;25.60;;;2.80;99.90;;;;;;5096480;28;20241;-83
2024/01/06 09:15:28;;;;;;;45.50;26.80;;;2.80;99.90;;;;;;5096420;28;20226;-82
2024/01/06 09:17:55;;;;;;;45.28;27.77;;;2.80;99.90;;;;;;5096411;28;20214;-83
2024/01/06 09:20:24;;;;;;;50.08;28.95;;;2.80;99.90;;;;;;5096627;28;20223;-83
2024/01/06 09:22:52;;;;;;;39.45;26.63;;;2.90;99.90;;;;;;5107326;28;20235;-93
2024/01/06 09:25:19;;;;;;;44.53;28.00;;;2.90;99.90;;;;;;5100660;28;20228;-92
2024/01/06 09:27:53;;;;;;;43.45;27.23;;;2.90;99.90;;;;;;5107177;28;20230;-92
2024/01/06 09:30:20;;;;;;;42.00;26.85;;;2.80;99.90;;;;;;5099723;28;20223;-92
2024/01/06 09:32:49;;;;;;;46.55;26.85;;;2.90;99.90;;;;;;5099191;28;20310;-93
2024/01/06 09:35:20;;;;;;;44.22;25.65;;;2.90;99.90;;;;;;5099398;28;20231;-93
2024/01/06 09:37:49;;;;;;;42.38;27.08;;;2.90;99.90;;;;;;5096199;28;20306;-93
2024/01/06 09:40:24;;;;;;;50.95;27.42;;;2.90;99.90;;;;;;5096789;28;20556;-92
2024/01/06 09:42:52;;;;;;;38.13;25.92;;;3.00;99.90;;;;;;5092278;28;20233;-93
2024/01/06 09:45:28;;;;;;;39.65;25.70;;;3.00;99.90;;;;;;5111248;28;20621;-93
2024/01/06 09:47:56;;;;;;;33.80;24.45;;;3.00;99.90;;;;;;5095917;28;20233;-92
2024/01/06 09:50:23;;;;;;;43.47;25.15;;;2.90;99.90;;;;;;5095137;28;20223;-83
2024/01/06 09:52:56;;;;;;;39.70;26.05;;;2.90;99.90;;;;;;5093729;28;21866;-83
2024/01/06 09:55:26;;;;;;;39.13;26.15;;;2.90;99.90;;;;;;5097801;28;20223;-83
2024/01/06 09:57:54;;;;;;;42.03;25.20;;;2.90;99.90;;;;;;5094344;28;20222;-94
2024/01/06 10:00:22;;;;;;;39.47;25.70;;;2.90;99.90;;;;;;5099953;28;20223;-82
2024/01/06 10:02:50;;;;;;;40.30;23.83;;;2.80;99.90;;;;;;5098413;28;20227;-83
2024/01/06 10:05:18;;;;;;;42.85;28.98;;;2.80;99.90;;;;;;5103229;28;20223;-93
2024/01/06 10:07:49;;;;;;;36.67;25.52;;;2.80;99.90;;;;;;5100230;28;20688;-93
2024/01/06 10:10:47;;;;;;;39.70;26.63;;;2.80;99.90;;;;;;5100355;28;20557;-92
2024/01/06 10:13:18;;;;;;;39.50;25.80;;;2.90;99.90;;;;;;5107919;28;20305;-92
2024/01/06 10:15:47;;;;;;;40.22;25.83;;;2.90;99.90;;;;;;5099041;28;20219;-92
2024/01/06 10:18:17;;;;;;;41.75;26.50;;;3.00;99.90;;;;;;5099618;28;20224;-91
2024/01/06 10:20:46;;;;;;;38.05;24.33;;;3.00;99.90;;;;;;5095615;28;20223;-92
2024/01/06 10:23:14;;;;;;;38.97;24.48;;;3.00;99.90;;;;;;5102095;28;20224;-92
2024/01/06 10:25:42;;;;;;;38.78;25.77;;;2.90;99.90;;;;;;5099738;28;20238;-82
2024/01/06 10:28:14;;;;;;;38.80;25.88;;;3.00;99.90;;;;;;5097459;28;20238;-82
2024/01/06 10:30:42;;;;;;;34.00;24.85;;;3.00;99.90;;;;;;5097823;28;20230;-82
2024/01/06 10:33:14;;;;;;;39.75;26.67;;;2.90;99.90;;;;;;5100545;28;20219;-92
2024/01/06 10:35:45;;;;;;;32.80;22.60;;;2.90;99.90;;;;;;5097672;28;20219;-82
2024/01/06 10:38:12;;;;;;;37.72;26.48;;;2.90;99.90;;;;;;5090743;28;20226;-92
2024/01/06 10:40:40;;;;;;;38.03;23.80;;;2.80;99.90;;;;;;5098905;28;20623;-81
2024/01/06 10:43:13;;;;;;;36.05;25.13;;;2.80;99.90;;;;;;5097740;28;20249;-82
2024/01/06 10:45:43;;;;;;;35.20;23.23;;;2.80;99.90;;;;;;5098786;28;20234;-91
2024/01/06 10:48:16;;;;;;;40.72;28.20;;;2.80;99.90;;;;;;5089544;28;20227;-91
2024/01/06 10:50:44;;;;;;;38.80;26.48;;;2.80;99.90;;;;;;5100200;28;20620;-93
2024/01/06 10:53:14;;;;;;;34.38;26.48;;;2.80;99.90;;;;;;5101407;28;20247;-91
2024/01/06 10:55:42;;;;;;;37.45;25.00;;;2.80;99.90;;;;;;5089847;28;20230;-91
2024/01/06 10:59:03;;;;;;;35.30;24.77;;;2.90;99.90;;;;;;5099291;28;20540;-93
2024/01/06 11:01:34;;;;;;;32.40;22.13;;;2.90;99.90;;;;;;5018724;28;20234;-93
2024/01/06 11:04:06;;;;;;;39.78;23.73;;;2.80;99.90;;;;;;5097462;28;20320;-91
2024/01/06 11:06:34;;;;;;;32.58;24.70;;;2.70;99.90;;;;;;5099116;28;20276;-83
2024/01/06 11:09:08;;;;;;;35.83;23.33;;;2.70;99.90;;;;;;5099987;28;20232;-93
2024/01/06 11:11:39;;;;;;;35.67;24.55;;;2.70;99.90;;;;;;5099655;28;20272;-93
2024/01/06 11:14:20;;;;;;;34.55;24.52;;;2.70;99.90;;;;;;5101431;28;20219;-93
2024/01/06 11:16:49;;;;;;;39.47;23.35;;;2.70;99.90;;;;;;5102212;28;20222;-92
2024/01/06 11:19:47;;;;;;;32.80;24.98;;;2.70;99.90;;;;;;5100450;28;20230;-93
2024/01/06 11:22:31;;;;;;;34.80;23.92;;;2.80;99.90;;;;;;5091533;28;20228;-92
2024/01/06 11:25:10;;;;;;;35.25;24.08;;;2.80;99.90;;;;;;5085970;28;20219;-91
2024/01/06 11:27:38;;;;;;;33.10;23.50;;;2.80;99.90;;;;;;5097257;28;20293;-82
2024/01/06 11:30:20;;;;;;;33.38;22.48;;;2.80;99.90;;;;;;5096459;28;20219;-82
2024/01/06 11:32:53;;;;;;;39.15;27.27;;;2.70;99.90;;;;;;5080015;28;20604;-81
2024/01/06 11:35:21;;;;;;;37.80;24.20;;;2.70;99.90;;;;;;5085955;28;20227;-82
2024/01/06 11:37:56;;;;;;;32.22;23.10;;;2.80;99.90;;;;;;5099975;28;20219;-91
2024/01/06 11:40:26;;;;;;;38.55;29.23;;;2.70;99.90;;;;;;5099659;28;20235;-92
2024/01/06 11:43:02;;;;;;;36.83;26.30;;;2.70;99.90;;;;;;5097970;28;20242;-91
2024/01/06 11:45:29;;;;;;;37.15;24.40;;;2.80;99.90;;;;;;5098349;28;20672;-93
2024/01/06 11:47:59;;;;;;;32.85;24.13;;;2.80;99.90;;;;;;5099459;28;20234;-92
2024/01/06 11:50:27;;;;;;;32.85;22.73;;;2.80;99.90;;;;;;5100419;28;20223;-93
2024/01/06 11:52:54;;;;;;;35.72;23.67;;;2.70;99.90;;;;;;5088464;28;20232;-93
2024/01/06 11:55:23;;;;;;;42.03;29.60;;;2.70;99.90;;;;;;5100084;28;20216;-93
2024/01/06 11:57:51;;;;;;;40.38;29.08;;;2.70;99.90;;;;;;5098870;28;20226;-93
2024/01/06 12:00:18;;;;;;;40.28;25.50;;;2.70;99.90;;;;;;5096073;28;20284;-83
2024/01/06 12:02:45;;;;;;;36.75;25.67;;;2.60;99.90;;;;;;5095960;28;20292;-83
2024/01/06 12:05:37;;;;;;;39.72;25.33;;;2.50;99.90;;;;;;5096224;28;20284;-82
2024/01/06 12:08:08;;;;;;;32.95;23.58;;;2.60;99.90;;;;;;5096398;28;20237;-82
2024/01/06 12:10:43;;;;;;;30.90;23.65;;;2.60;99.90;;;;;;5096101;28;20238;-81
2024/01/06 12:13:14;;;;;;;38.05;23.45;;;2.60;99.90;;;;;;5095103;28;20284;-82
2024/01/06 12:15:48;;;;;;;35.83;24.83;;;2.50;99.90;;;;;;5096214;28;20325;-82
2024/01/06 12:18:33;;;;;;;36.47;24.55;;;2.50;99.90;;;;;;5098033;28;20549;-82
2024/01/06 12:21:02;;;;;;;33.47;23.60;;;2.60;99.90;;;;;;5095258;28;20235;-92
2024/01/06 12:23:32;;;;;;;33.92;23.13;;;2.50;99.90;;;;;;5097110;28;20228;-81
2024/01/06 12:26:02;;;;;;;32.55;21.73;;;2.50;99.90;;;;;;5095309;28;20286;-82
2024/01/06 12:28:29;;;;;;;34.78;22.50;;;2.50;99.90;;;;;;5095627;28;20227;-81
2024/01/06 12:30:56;;;;;;;34.63;22.95;;;2.50;99.90;;;;;;5095713;28;20228;-82
2024/01/06 12:33:24;;;;;;;34.63;24.45;;;2.50;99.90;;;;;;5099552;28;20228;-93
2024/01/06 12:35:53;;;;;;;38.20;24.83;;;2.60;99.90;;;;;;5096072;28;20219;-83
2024/01/06 12:38:22;;;;;;;39.65;23.42;;;2.60;99.90;;;;;;5095526;28;20223;-82
2024/01/06 12:40:50;;;;;;;37.13;23.48;;;2.60;99.90;;;;;;5095617;28;20677;-81
2024/01/06 12:43:17;;;;;;;36.28;22.17;;;2.60;99.90;;;;;;5104585;28;20238;-92
2024/01/06 12:45:44;;;;;;;30.38;22.83;;;2.70;99.90;;;;;;5099570;28;20227;-82
2024/01/06 12:51:33;;;;;;;32.40;21.65;;;2.60;99.90;;;;;;4983496;28;20231;-82
2024/01/06 12:54:04;;;;;;;35.42;23.40;;;2.60;99.90;;;;;;5085360;28;20281;-81